createdAt,value
2018-12-21T00:00:38.013Z,3.30
2018-12-21T00:01:42.433Z,3.90
2018-12-21T00:02:46.660Z,4.40
2018-12-21T00:03:50.111Z,4.10
2018-12-21T00:04:53.609Z,3.63
2018-12-21T00:05:57.027Z,4.23
2018-12-21T00:07:00.510Z,4.00
2018-12-21T00:08:04.117Z,3.63
2018-12-21T00:09:08.834Z,3.47
2018-12-21T00:10:12.381Z,3.37
2018-12-21T00:11:16.012Z,3.90
2018-12-21T00:12:19.793Z,3.90
2018-12-21T00:13:24.162Z,3.43
2018-12-21T00:14:29.274Z,3.73
2018-12-21T00:15:33.870Z,4.73
2018-12-21T00:16:37.471Z,4.00
2018-12-21T00:17:41.067Z,4.10
2018-12-21T00:18:44.613Z,4.20
2018-12-21T00:19:48.763Z,3.77
2018-12-21T00:20:52.628Z,4.60
2018-12-21T00:21:56.410Z,3.93
2018-12-21T00:22:59.869Z,4.23
2018-12-21T00:24:03.376Z,4.23
2018-12-21T00:25:07.500Z,4.53
2018-12-21T00:26:10.997Z,4.27
2018-12-21T00:27:14.520Z,4.50
2018-12-21T00:28:18.786Z,3.93
2018-12-21T00:29:22.355Z,5.37
2018-12-21T00:30:26.029Z,4.83
2018-12-21T00:31:34.847Z,4.97
2018-12-21T00:32:43.958Z,4.20
2018-12-21T00:33:53.366Z,5.07
2018-12-21T00:35:02.606Z,4.40
2018-12-21T00:36:11.404Z,4.80
2018-12-21T00:37:21.124Z,4.63
2018-12-21T00:38:31.287Z,4.67
2018-12-21T00:39:40.996Z,4.23
2018-12-21T00:40:49.996Z,4.30
2018-12-21T00:41:52.797Z,4.77
2018-12-21T00:44:51.749Z,4.47
2018-12-21T00:45:59.020Z,4.60
2018-12-21T00:47:07.031Z,4.30
2018-12-21T00:48:10.508Z,4.20
2018-12-21T00:49:14.981Z,4.33
2018-12-21T00:50:18.553Z,4.43
2018-12-21T00:51:30.006Z,4.00
2018-12-21T00:52:28.565Z,4.87
2018-12-21T00:53:32.407Z,4.83
2018-12-21T00:54:36.530Z,3.93
2018-12-21T00:55:40.100Z,4.37
2018-12-21T00:56:44.591Z,4.47
2018-12-21T00:57:48.051Z,4.23
2018-12-21T00:58:51.664Z,3.50
2018-12-21T00:59:55.146Z,3.87
2018-12-21T01:00:58.720Z,3.43
2018-12-21T01:02:02.305Z,4.00
2018-12-21T01:03:06.803Z,4.13
2018-12-21T01:04:11.166Z,3.70
2018-12-21T01:05:15.618Z,3.10
2018-12-21T01:06:19.125Z,4.00
2018-12-21T01:07:22.636Z,3.60
2018-12-21T01:08:26.847Z,4.07
2018-12-21T01:09:30.669Z,3.60
2018-12-21T01:10:34.667Z,3.60
2018-12-21T01:11:38.226Z,4.07
2018-12-21T01:12:41.705Z,3.47
2018-12-21T01:13:45.500Z,2.80
2018-12-21T01:14:49.731Z,3.33
2018-12-21T01:15:53.288Z,3.57
2018-12-21T01:16:56.816Z,3.10
2018-12-21T01:18:01.426Z,2.87
2018-12-21T01:19:05.075Z,3.17
2018-12-21T01:20:09.185Z,3.80
2018-12-21T01:21:12.631Z,3.23
2018-12-21T01:22:16.105Z,3.53
2018-12-21T01:23:19.552Z,3.37
2018-12-21T01:24:23.029Z,3.53
2018-12-21T01:25:26.596Z,2.80
2018-12-21T01:26:30.157Z,3.07
2018-12-21T01:27:33.624Z,3.67
2018-12-21T01:28:37.413Z,2.83
2018-12-21T01:29:40.931Z,3.00
2018-12-21T01:30:45.440Z,2.93
2018-12-21T01:31:49.093Z,3.20
2018-12-21T01:32:52.746Z,2.73
2018-12-21T01:33:56.284Z,2.57
2018-12-21T01:35:00.340Z,2.97
2018-12-21T01:36:03.943Z,3.17
2018-12-21T01:37:09.133Z,3.40
2018-12-21T01:38:12.868Z,3.00
2018-12-21T01:39:17.540Z,3.07
2018-12-21T01:40:21.197Z,2.60
2018-12-21T01:41:24.727Z,3.00
2018-12-21T01:42:28.648Z,3.13
2018-12-21T01:43:32.137Z,3.10
2018-12-21T01:44:35.624Z,3.27
2018-12-21T01:45:39.236Z,2.93
2018-12-21T01:46:42.848Z,3.00
2018-12-21T01:47:46.318Z,3.13
2018-12-21T01:48:50.451Z,2.70
2018-12-21T01:49:53.891Z,2.97
2018-12-21T01:50:57.419Z,2.70
2018-12-21T01:52:00.855Z,2.97
2018-12-21T01:53:04.533Z,2.50
2018-12-21T01:54:11.412Z,2.60
2018-12-21T01:55:15.168Z,2.63
2018-12-21T01:56:18.624Z,2.53
2018-12-21T01:57:22.031Z,2.80
2018-12-21T01:58:25.631Z,2.50
2018-12-21T01:59:29.707Z,2.40
2018-12-21T02:00:33.249Z,2.40
2018-12-21T02:01:36.872Z,2.53
2018-12-21T02:02:40.484Z,2.77
2018-12-21T02:03:43.991Z,2.50
2018-12-21T02:04:47.444Z,2.20
2018-12-21T02:05:52.231Z,2.17
2018-12-21T02:06:55.770Z,2.10
2018-12-21T02:07:59.218Z,2.73
2018-12-21T02:09:02.755Z,2.70
2018-12-21T02:10:07.107Z,2.50
2018-12-21T02:11:10.861Z,2.37
2018-12-21T02:12:15.076Z,2.63
2018-12-21T02:13:18.764Z,2.53
2018-12-21T02:14:22.224Z,2.17
2018-12-21T02:15:26.200Z,2.97
2018-12-21T02:16:29.707Z,2.50
2018-12-21T02:17:33.220Z,2.07
2018-12-21T02:18:37.288Z,2.43
2018-12-21T02:19:40.870Z,3.33
2018-12-21T02:20:44.373Z,2.43
2018-12-21T02:21:55.802Z,2.83
2018-12-21T02:22:54.772Z,2.40
2018-12-21T02:23:58.300Z,2.47
2018-12-21T02:25:01.712Z,2.60
2018-12-21T02:26:05.213Z,2.27
2018-12-21T02:27:08.673Z,2.87
2018-12-21T02:28:13.594Z,2.43
2018-12-21T02:29:17.105Z,2.37
2018-12-21T02:30:20.562Z,3.00
2018-12-21T02:31:24.033Z,1.83
2018-12-21T02:32:27.496Z,2.53
2018-12-21T02:33:31.010Z,2.40
2018-12-21T02:34:34.564Z,2.50
2018-12-21T02:35:38.024Z,2.33
2018-12-21T02:36:41.575Z,2.07
2018-12-21T02:37:45.887Z,2.70
2018-12-21T02:38:49.353Z,2.13
2018-12-21T02:39:53.284Z,2.10
2018-12-21T02:40:56.738Z,2.43
2018-12-21T02:42:00.587Z,2.33
2018-12-21T02:43:04.104Z,2.07
2018-12-21T02:44:07.523Z,1.93
2018-12-21T02:45:11.480Z,1.93
2018-12-21T02:46:15.697Z,2.20
2018-12-21T02:47:20.094Z,3.30
2018-12-21T02:48:23.716Z,2.50
2018-12-21T02:49:27.204Z,2.40
2018-12-21T02:50:30.804Z,2.00
2018-12-21T02:51:35.607Z,2.23
2018-12-21T02:52:39.084Z,3.23
2018-12-21T02:53:42.775Z,2.23
2018-12-21T02:54:46.247Z,2.10
2018-12-21T02:55:49.801Z,2.23
2018-12-21T02:56:53.360Z,2.23
2018-12-21T02:57:57.063Z,2.47
2018-12-21T02:59:00.552Z,2.37
2018-12-21T03:00:05.397Z,2.20
2018-12-21T03:01:08.898Z,2.07
2018-12-21T03:02:12.374Z,2.50
2018-12-21T03:03:16.046Z,2.47
2018-12-21T03:04:19.924Z,2.40
2018-12-21T03:05:23.444Z,2.13
2018-12-21T03:06:27.030Z,2.20
2018-12-21T03:07:30.704Z,1.83
2018-12-21T03:08:34.253Z,2.77
2018-12-21T03:09:37.791Z,2.53
2018-12-21T03:10:41.406Z,2.27
2018-12-21T03:11:44.905Z,2.20
2018-12-21T03:12:48.326Z,2.20
2018-12-21T03:13:52.715Z,2.03
2018-12-21T03:14:56.126Z,2.30
2018-12-21T03:15:59.572Z,2.10
2018-12-21T03:17:03.168Z,2.10
2018-12-21T03:18:07.020Z,1.70
2018-12-21T03:19:11.060Z,2.50
2018-12-21T03:20:14.867Z,1.83
2018-12-21T03:21:18.403Z,2.30
2018-12-21T03:22:21.925Z,1.97
2018-12-21T03:23:26.007Z,2.00
2018-12-21T03:24:29.538Z,3.03
2018-12-21T03:25:32.983Z,2.27
2018-12-21T03:26:36.580Z,2.13
2018-12-21T03:27:40.309Z,2.00
2018-12-21T03:28:43.741Z,2.17
2018-12-21T03:29:47.265Z,2.43
2018-12-21T03:30:50.691Z,1.97
2018-12-21T03:31:54.468Z,1.97
2018-12-21T03:32:57.972Z,2.10
2018-12-21T03:34:02.074Z,1.83
2018-12-21T03:35:07.021Z,1.90
2018-12-21T03:36:11.204Z,2.10
2018-12-21T03:37:15.735Z,2.23
2018-12-21T03:38:19.163Z,2.27
2018-12-21T03:39:22.845Z,2.33
2018-12-21T03:40:26.704Z,1.97
2018-12-21T03:41:30.492Z,2.20
2018-12-21T03:42:33.942Z,2.13
2018-12-21T03:43:37.456Z,2.73
2018-12-21T03:44:41.010Z,2.00
2018-12-21T03:45:45.214Z,2.03
2018-12-21T03:46:49.028Z,2.20
2018-12-21T03:47:53.679Z,2.40
2018-12-21T03:48:57.227Z,2.90
2018-12-21T03:50:00.922Z,2.20
2018-12-21T03:51:04.519Z,2.10
2018-12-21T03:52:08.040Z,1.93
2018-12-21T03:53:12.090Z,2.30
2018-12-21T03:54:16.035Z,2.50
2018-12-21T03:55:19.529Z,2.00
2018-12-21T03:56:23.112Z,1.93
2018-12-21T03:57:26.547Z,1.90
2018-12-21T03:58:30.099Z,2.47
2018-12-21T03:59:33.584Z,2.00
2018-12-21T04:00:37.997Z,2.10
2018-12-21T04:01:42.085Z,1.70
2018-12-21T04:02:45.595Z,2.13
2018-12-21T04:03:49.061Z,2.53
2018-12-21T04:04:52.958Z,1.97
2018-12-21T04:05:56.516Z,2.40
2018-12-21T04:07:00.058Z,2.07
2018-12-21T04:08:03.527Z,2.23
2018-12-21T04:09:08.416Z,2.07
2018-12-21T04:10:12.109Z,1.70
2018-12-21T04:11:15.683Z,2.40
2018-12-21T04:12:19.110Z,2.20
2018-12-21T04:13:22.647Z,1.80
2018-12-21T04:14:26.072Z,1.63
2018-12-21T04:15:30.893Z,1.83
2018-12-21T04:16:34.418Z,2.00
2018-12-21T04:17:37.971Z,2.00
2018-12-21T04:18:41.562Z,1.70
2018-12-21T04:19:46.402Z,1.60
2018-12-21T04:20:50.303Z,1.80
2018-12-21T04:21:53.893Z,1.63
2018-12-21T04:22:58.030Z,1.50
2018-12-21T04:24:01.530Z,1.60
2018-12-21T04:25:05.307Z,1.60
2018-12-21T04:26:08.980Z,1.50
2018-12-21T04:27:12.546Z,1.47
2018-12-21T04:28:15.972Z,1.40
2018-12-21T04:29:19.571Z,1.50
2018-12-21T04:30:23.198Z,1.30
2018-12-21T04:31:26.723Z,1.77
2018-12-21T04:32:30.263Z,1.40
2018-12-21T04:33:33.824Z,1.30
2018-12-21T04:34:37.464Z,1.17
2018-12-21T04:35:40.953Z,1.70
2018-12-21T04:36:44.521Z,1.37
2018-12-21T04:37:48.027Z,1.43
2018-12-21T04:38:51.613Z,1.30
2018-12-21T04:39:55.632Z,1.20
2018-12-21T04:40:59.236Z,1.20
2018-12-21T04:42:02.780Z,1.23
2018-12-21T04:43:06.445Z,1.50
2018-12-21T04:44:09.954Z,1.53
2018-12-21T04:45:14.154Z,1.10
2018-12-21T04:46:17.704Z,1.40
2018-12-21T04:47:21.452Z,1.27
2018-12-21T04:48:24.931Z,1.00
2018-12-21T04:49:28.528Z,1.80
2018-12-21T04:50:32.031Z,1.60
2018-12-21T04:51:35.602Z,1.27
2018-12-21T04:52:43.366Z,1.10
2018-12-21T04:53:44.775Z,1.20
2018-12-21T04:54:48.409Z,2.13
2018-12-21T04:55:51.924Z,1.80
2018-12-21T04:56:55.422Z,1.77
2018-12-21T04:57:59.019Z,1.60
2018-12-21T04:59:02.828Z,1.83
2018-12-21T05:00:06.948Z,1.47
2018-12-21T05:01:10.469Z,1.00
2018-12-21T05:02:14.008Z,1.20
2018-12-21T05:03:17.539Z,1.20
2018-12-21T05:04:21.129Z,1.60
2018-12-21T05:05:24.646Z,1.43
2018-12-21T05:06:28.256Z,1.37
2018-12-21T05:07:31.742Z,1.23
2018-12-21T05:08:35.380Z,1.80
2018-12-21T05:09:38.985Z,1.23
2018-12-21T05:10:42.569Z,1.30
2018-12-21T05:11:46.096Z,1.40
2018-12-21T05:12:49.796Z,1.70
2018-12-21T05:13:53.305Z,1.70
2018-12-21T05:14:57.095Z,1.27
2018-12-21T05:16:00.604Z,1.20
2018-12-21T05:17:04.341Z,1.13
2018-12-21T05:18:07.951Z,1.43
2018-12-21T05:19:11.561Z,1.33
2018-12-21T05:20:15.074Z,1.00
2018-12-21T05:21:18.710Z,1.70
2018-12-21T05:22:22.256Z,1.17
2018-12-21T05:23:25.756Z,1.43
2018-12-21T05:24:29.345Z,1.43
2018-12-21T05:25:32.868Z,1.20
2018-12-21T05:26:36.462Z,1.20
2018-12-21T05:27:39.886Z,1.40
2018-12-21T05:28:43.453Z,1.63
2018-12-21T05:29:47.040Z,1.03
2018-12-21T05:30:50.586Z,1.33
2018-12-21T05:31:54.103Z,1.03
2018-12-21T05:32:57.755Z,0.97
2018-12-21T05:34:01.315Z,1.03
2018-12-21T05:35:05.380Z,1.10
2018-12-21T05:36:08.917Z,1.07
2018-12-21T05:37:12.536Z,1.40
2018-12-21T05:38:15.982Z,1.30
2018-12-21T05:39:19.570Z,1.07
2018-12-21T05:40:23.064Z,1.03
2018-12-21T05:41:26.689Z,1.30
2018-12-21T05:42:30.186Z,1.20
2018-12-21T05:43:33.794Z,1.00
2018-12-21T05:44:37.332Z,1.30
2018-12-21T05:45:40.817Z,1.13
2018-12-21T05:46:44.299Z,1.30
2018-12-21T05:47:48.119Z,1.27
2018-12-21T05:48:51.668Z,0.90
2018-12-21T05:49:55.604Z,1.27
2018-12-21T05:50:59.117Z,1.10
2018-12-21T05:52:02.583Z,1.10
2018-12-21T05:53:06.217Z,1.10
2018-12-21T05:54:10.151Z,1.00
2018-12-21T05:55:13.740Z,1.33
2018-12-21T05:56:17.336Z,1.10
2018-12-21T05:57:20.974Z,1.00
2018-12-21T05:58:24.632Z,1.00
2018-12-21T05:59:28.350Z,1.40
2018-12-21T06:00:31.971Z,1.10
2018-12-21T06:01:35.528Z,1.50
2018-12-21T06:02:39.040Z,1.10
2018-12-21T06:03:42.484Z,1.00
2018-12-21T06:04:45.985Z,1.50
2018-12-21T06:05:49.662Z,1.27
2018-12-21T06:06:53.202Z,1.17
2018-12-21T06:07:56.859Z,1.00
2018-12-21T06:09:00.323Z,1.10
2018-12-21T06:10:04.020Z,1.27
2018-12-21T06:11:07.520Z,0.90
2018-12-21T06:12:11.208Z,0.90
2018-12-21T06:13:14.678Z,1.00
2018-12-21T06:14:18.317Z,0.97
2018-12-21T06:15:22.066Z,1.30
2018-12-21T06:16:25.643Z,1.37
2018-12-21T06:17:29.149Z,1.20
2018-12-21T06:18:32.935Z,1.10
2018-12-21T06:19:36.495Z,1.20
2018-12-21T06:20:40.014Z,1.20
2018-12-21T06:21:43.540Z,1.27
2018-12-21T06:22:47.092Z,0.80
2018-12-21T06:23:50.676Z,1.10
2018-12-21T06:24:54.186Z,1.30
2018-12-21T06:25:58.607Z,1.30
2018-12-21T06:27:02.324Z,1.63
2018-12-21T06:28:05.856Z,1.20
2018-12-21T06:29:09.357Z,1.40
2018-12-21T06:30:12.852Z,1.30
2018-12-21T06:31:16.362Z,1.20
2018-12-21T06:32:19.844Z,1.30
2018-12-21T06:33:23.336Z,1.40
2018-12-21T06:34:26.887Z,1.10
2018-12-21T06:35:30.463Z,1.10
2018-12-21T06:36:34.065Z,1.33
2018-12-21T06:37:37.611Z,1.50
2018-12-21T06:38:41.105Z,1.00
2018-12-21T06:39:44.641Z,1.37
2018-12-21T06:40:48.266Z,1.30
2018-12-21T06:41:51.795Z,1.27
2018-12-21T06:42:55.303Z,1.07
2018-12-21T06:43:59.323Z,1.10
2018-12-21T06:45:02.993Z,1.27
2018-12-21T06:46:13.937Z,1.20
2018-12-21T06:47:12.314Z,1.10
2018-12-21T06:48:15.776Z,1.30
2018-12-21T06:49:19.427Z,1.20
2018-12-21T06:50:23.146Z,1.40
2018-12-21T06:51:26.699Z,1.00
2018-12-21T06:52:30.914Z,1.23
2018-12-21T06:53:34.628Z,1.10
2018-12-21T06:54:38.131Z,1.13
2018-12-21T06:55:41.675Z,1.00
2018-12-21T06:56:45.191Z,1.60
2018-12-21T06:57:48.994Z,0.90
2018-12-21T06:58:52.852Z,0.97
2018-12-21T06:59:56.571Z,0.83
2018-12-21T07:01:00.783Z,1.10
2018-12-21T07:02:04.715Z,0.90
2018-12-21T07:03:08.296Z,1.10
2018-12-21T07:04:11.979Z,0.97
2018-12-21T07:05:15.499Z,1.10
2018-12-21T07:06:19.116Z,1.10
2018-12-21T07:07:22.721Z,1.17
2018-12-21T07:08:26.324Z,1.00
2018-12-21T07:09:30.044Z,0.90
2018-12-21T07:10:33.580Z,1.00
2018-12-21T07:11:37.139Z,1.03
2018-12-21T07:12:40.731Z,1.10
2018-12-21T07:13:44.587Z,1.17
2018-12-21T07:14:48.221Z,1.13
2018-12-21T07:15:51.773Z,1.03
2018-12-21T07:16:55.428Z,1.27
2018-12-21T07:17:59.820Z,0.97
2018-12-21T07:19:05.794Z,0.87
2018-12-21T07:20:10.342Z,0.97
2018-12-21T07:21:14.860Z,0.70
2018-12-21T07:22:18.429Z,0.90
2018-12-21T07:23:27.004Z,0.87
2018-12-21T07:24:28.107Z,0.70
2018-12-21T07:25:31.966Z,1.07
2018-12-21T07:26:35.439Z,0.97
2018-12-21T07:27:39.065Z,0.83
2018-12-21T07:28:42.744Z,0.83
2018-12-21T07:29:46.679Z,1.20
2018-12-21T07:30:50.228Z,1.00
2018-12-21T07:31:53.737Z,0.80
2018-12-21T07:32:57.312Z,0.80
2018-12-21T07:34:01.419Z,1.20
2018-12-21T07:35:06.656Z,0.80
2018-12-21T07:36:10.745Z,0.90
2018-12-21T07:37:14.617Z,1.10
2018-12-21T07:38:18.551Z,0.73
2018-12-21T07:39:22.116Z,0.70
2018-12-21T07:40:25.756Z,0.90
2018-12-21T07:41:29.361Z,1.10
2018-12-21T07:42:32.945Z,1.00
2018-12-21T07:43:36.473Z,1.03
2018-12-21T07:44:40.081Z,0.93
2018-12-21T07:45:43.598Z,0.93
2018-12-21T07:46:47.370Z,0.80
2018-12-21T07:47:51.072Z,0.90
2018-12-21T07:48:54.894Z,0.83
2018-12-21T07:49:58.934Z,1.10
2018-12-21T07:51:02.830Z,0.90
2018-12-21T07:52:06.410Z,0.67
2018-12-21T07:53:10.473Z,0.60
2018-12-21T07:54:14.433Z,0.70
2018-12-21T07:55:18.001Z,0.70
2018-12-21T07:56:21.566Z,0.63
2018-12-21T07:57:25.147Z,1.40
2018-12-21T07:58:28.729Z,0.57
2018-12-21T07:59:32.405Z,1.13
2018-12-21T08:00:35.993Z,0.70
2018-12-21T08:01:39.555Z,0.67
2018-12-21T08:02:43.152Z,0.60
2018-12-21T08:03:46.859Z,0.87
2018-12-21T08:04:50.461Z,0.80
2018-12-21T08:05:54.097Z,0.53
2018-12-21T08:06:57.657Z,0.60
2018-12-21T08:08:01.507Z,0.77
2018-12-21T08:09:06.889Z,0.70
2018-12-21T08:10:14.180Z,0.80
2018-12-21T08:11:17.915Z,0.80
2018-12-21T08:12:21.645Z,0.80
2018-12-21T08:13:25.433Z,0.80
2018-12-21T08:14:29.026Z,0.70
2018-12-21T08:15:32.777Z,0.80
2018-12-21T08:16:36.771Z,0.80
2018-12-21T08:17:40.408Z,0.57
2018-12-21T08:18:44.016Z,0.80
2018-12-21T08:19:47.649Z,0.90
2018-12-21T08:20:51.328Z,0.60
2018-12-21T08:21:54.903Z,0.70
2018-12-21T08:22:58.621Z,0.70
2018-12-21T08:24:02.759Z,0.60
2018-12-21T08:25:07.975Z,0.47
2018-12-21T08:26:11.825Z,0.43
2018-12-21T08:27:15.554Z,0.40
2018-12-21T08:28:19.179Z,0.87
2018-12-21T08:29:39.817Z,0.40
2018-12-21T08:30:47.594Z,0.60
2018-12-21T08:31:51.248Z,0.47
2018-12-21T08:32:54.776Z,0.53
2018-12-21T08:33:58.441Z,0.50
2018-12-21T08:35:01.984Z,0.40
2018-12-21T08:36:05.971Z,0.50
2018-12-21T08:37:09.742Z,0.60
2018-12-21T08:38:13.825Z,0.43
2018-12-21T08:39:17.511Z,0.40
2018-12-21T08:40:21.184Z,0.40
2018-12-21T08:41:25.042Z,0.60
2018-12-21T08:42:28.912Z,0.43
2018-12-21T08:43:32.573Z,0.57
2018-12-21T08:44:36.284Z,0.50
2018-12-21T08:45:39.886Z,0.50
2018-12-21T08:46:43.702Z,0.50
2018-12-21T08:47:47.240Z,0.60
2018-12-21T08:48:52.779Z,0.40
2018-12-21T08:49:56.368Z,0.57
2018-12-21T08:51:00.184Z,0.40
2018-12-21T08:52:04.867Z,0.70
2018-12-21T08:53:08.580Z,0.53
2018-12-21T08:54:12.362Z,0.70
2018-12-21T08:55:15.940Z,0.50
2018-12-21T08:56:19.651Z,0.50
2018-12-21T08:57:23.143Z,0.47
2018-12-21T08:58:26.757Z,0.60
2018-12-21T08:59:30.597Z,0.60
2018-12-21T09:00:34.234Z,0.50
2018-12-21T09:01:38.131Z,0.40
2018-12-21T09:02:41.851Z,0.47
2018-12-21T09:03:45.646Z,0.40
2018-12-21T09:04:49.392Z,0.30
2018-12-21T09:05:53.086Z,0.40
2018-12-21T09:06:56.734Z,0.50
2018-12-21T09:08:00.354Z,0.30
2018-12-21T09:09:06.500Z,0.70
2018-12-21T09:10:11.133Z,0.40
2018-12-21T09:11:15.000Z,0.47
2018-12-21T09:12:18.553Z,0.60
2018-12-21T09:13:22.220Z,0.40
2018-12-21T09:14:25.821Z,0.33
2018-12-21T09:15:29.700Z,0.40
2018-12-21T09:16:33.389Z,0.50
2018-12-21T09:17:37.105Z,0.57
2018-12-21T09:18:40.797Z,0.50
2018-12-21T09:19:44.474Z,0.50
2018-12-21T09:20:48.071Z,0.40
2018-12-21T09:21:51.694Z,0.50
2018-12-21T09:22:55.353Z,0.35
2018-12-21T09:24:01.109Z,0.40
2018-12-21T09:25:04.785Z,0.33
2018-12-21T09:26:08.538Z,0.47
2018-12-21T09:27:13.188Z,0.53
2018-12-21T09:28:17.115Z,0.40
2018-12-21T09:29:20.732Z,0.40
2018-12-21T09:30:24.297Z,0.30
2018-12-21T09:31:27.914Z,0.47
2018-12-21T09:32:31.545Z,0.80
2018-12-21T09:33:35.160Z,0.60
2018-12-21T09:34:38.800Z,0.40
2018-12-21T09:35:42.741Z,0.60
2018-12-21T09:36:46.846Z,0.67
2018-12-21T09:37:50.595Z,0.33
2018-12-21T09:38:54.534Z,0.40
2018-12-21T09:39:58.125Z,0.30
2018-12-21T09:41:01.674Z,0.40
2018-12-21T09:42:05.492Z,0.30
2018-12-21T09:43:09.060Z,0.57
2018-12-21T09:44:12.893Z,0.40
2018-12-21T09:45:16.532Z,0.40
2018-12-21T09:46:20.199Z,0.30
2018-12-21T09:47:23.862Z,0.40
2018-12-21T09:48:27.456Z,0.50
2018-12-21T09:49:31.032Z,0.35
2018-12-21T09:50:34.656Z,0.40
2018-12-21T09:51:38.246Z,0.30
2018-12-21T09:52:41.910Z,0.35
2018-12-21T09:53:45.608Z,0.40
2018-12-21T09:54:49.173Z,0.40
2018-12-21T09:55:52.908Z,1.22
2018-12-21T09:56:56.548Z,0.30
2018-12-21T09:58:00.204Z,0.40
2018-12-21T09:59:03.872Z,0.47
2018-12-21T10:00:11.051Z,0.30
2018-12-21T10:01:14.683Z,0.33
2018-12-21T10:02:18.373Z,0.33
2018-12-21T10:03:22.011Z,0.30
2018-12-21T10:04:25.832Z,0.30
2018-12-21T10:05:29.496Z,0.30
2018-12-21T10:06:33.169Z,0.50
2018-12-21T10:07:36.723Z,0.40
2018-12-21T10:08:40.457Z,0.50
2018-12-21T10:09:44.065Z,0.20
2018-12-21T10:10:47.707Z,0.37
2018-12-21T10:11:51.308Z,0.50
2018-12-21T10:12:54.910Z,0.33
2018-12-21T10:13:58.471Z,0.40
2018-12-21T10:15:02.113Z,0.40
2018-12-21T10:16:05.859Z,0.40
2018-12-21T10:17:09.577Z,0.63
2018-12-21T10:18:13.391Z,0.47
2018-12-21T10:19:17.162Z,0.40
2018-12-21T10:20:20.642Z,0.30
2018-12-21T10:21:25.361Z,0.30
2018-12-21T10:22:28.943Z,0.70
2018-12-21T10:23:32.863Z,0.70
2018-12-21T10:24:36.485Z,0.40
2018-12-21T10:25:40.148Z,0.50
2018-12-21T10:26:43.670Z,0.30
2018-12-21T10:27:47.373Z,0.30
2018-12-21T10:28:51.011Z,0.40
2018-12-21T10:29:54.618Z,0.30
2018-12-21T10:30:58.180Z,0.40
2018-12-21T10:32:18.261Z,0.40
2018-12-21T10:33:21.832Z,0.30
2018-12-21T10:34:26.245Z,0.40
2018-12-21T10:35:30.035Z,0.40
2018-12-21T10:36:34.354Z,0.40
2018-12-21T10:37:37.988Z,0.50
2018-12-21T10:38:41.579Z,0.70
2018-12-21T10:39:45.300Z,0.60
2018-12-21T10:40:49.075Z,0.57
2018-12-21T10:41:52.744Z,0.67
2018-12-21T10:42:56.470Z,0.60
2018-12-21T10:44:00.210Z,0.73
2018-12-21T10:45:04.241Z,0.80
2018-12-21T10:46:08.662Z,0.60
2018-12-21T10:47:12.420Z,0.60
2018-12-21T10:48:16.301Z,1.00
2018-12-21T10:49:19.919Z,0.67
2018-12-21T10:50:23.528Z,0.73
2018-12-21T10:51:27.440Z,0.67
2018-12-21T10:52:32.823Z,1.10
2018-12-21T10:53:36.492Z,0.90
2018-12-21T10:54:40.106Z,0.70
2018-12-21T10:55:44.357Z,0.83
2018-12-21T10:56:47.920Z,0.90
2018-12-21T10:57:52.033Z,1.03
2018-12-21T10:58:57.117Z,0.90
2018-12-21T11:00:00.813Z,0.80
2018-12-21T11:01:04.415Z,0.60
2018-12-21T11:02:08.026Z,0.60
2018-12-21T11:03:12.060Z,0.50
2018-12-21T11:04:15.933Z,0.60
2018-12-21T11:05:19.518Z,0.63
2018-12-21T11:06:24.045Z,0.50
2018-12-21T11:07:28.609Z,0.57
2018-12-21T11:08:32.867Z,0.50
2018-12-21T11:09:38.081Z,0.30
2018-12-21T11:10:42.297Z,0.50
2018-12-21T11:11:45.998Z,0.50
2018-12-21T11:12:49.537Z,0.30
2018-12-21T11:13:54.082Z,0.37
2018-12-21T11:14:57.655Z,0.40
2018-12-21T11:16:01.319Z,0.77
2018-12-21T11:17:05.227Z,0.50
2018-12-21T11:18:09.384Z,0.60
2018-12-21T11:19:13.004Z,0.50
2018-12-21T11:20:16.985Z,0.50
2018-12-21T11:21:20.992Z,0.60
2018-12-21T11:22:24.636Z,0.50
2018-12-21T11:23:28.373Z,0.50
2018-12-21T11:24:35.616Z,0.60
2018-12-21T11:25:37.958Z,0.50
2018-12-21T11:26:41.413Z,0.70
2018-12-21T11:27:45.295Z,0.50
2018-12-21T11:28:48.983Z,0.53
2018-12-21T11:29:53.311Z,0.73
2018-12-21T11:30:56.876Z,0.80
2018-12-21T11:32:01.456Z,0.83
2018-12-21T11:33:04.988Z,1.00
2018-12-21T11:34:08.628Z,1.00
2018-12-21T11:35:12.520Z,0.90
2018-12-21T11:36:16.084Z,1.20
2018-12-21T11:37:20.060Z,0.90
2018-12-21T11:38:23.738Z,0.87
2018-12-21T11:39:27.502Z,0.93
2018-12-21T11:40:31.324Z,1.23
2018-12-21T11:41:34.979Z,1.20
2018-12-21T11:42:39.964Z,1.10
2018-12-21T11:43:43.474Z,1.30
2018-12-21T11:44:47.591Z,1.20
2018-12-21T11:45:51.815Z,1.23
2018-12-21T11:46:55.615Z,1.30
2018-12-21T11:47:59.748Z,1.40
2018-12-21T11:49:03.409Z,1.70
2018-12-21T11:50:09.698Z,1.50
2018-12-21T11:51:14.021Z,1.33
2018-12-21T11:52:17.540Z,1.50
2018-12-21T11:53:21.396Z,1.60
2018-12-21T11:54:25.040Z,1.70
2018-12-21T11:55:29.229Z,1.90
2018-12-21T11:56:33.367Z,1.90
2018-12-21T11:57:37.781Z,1.50
2018-12-21T11:58:41.957Z,1.70
2018-12-21T11:59:45.568Z,1.70
2018-12-21T12:00:49.242Z,1.73
2018-12-21T12:01:53.074Z,2.03
2018-12-21T12:02:57.039Z,2.13
2018-12-21T12:04:00.708Z,1.70
2018-12-21T12:05:04.746Z,2.20
2018-12-21T12:06:08.251Z,2.00
2018-12-21T12:07:12.104Z,1.93
2018-12-21T12:08:15.783Z,1.90
2018-12-21T12:09:19.645Z,1.77
2018-12-21T12:10:23.327Z,2.03
2018-12-21T12:11:27.570Z,2.23
2018-12-21T12:12:31.755Z,2.10
2018-12-21T12:13:35.406Z,2.10
2018-12-21T12:14:39.220Z,2.57
2018-12-21T12:15:42.787Z,2.17
2018-12-21T12:16:46.371Z,2.40
2018-12-21T12:17:50.092Z,2.60
2018-12-21T12:18:54.245Z,2.57
2018-12-21T12:19:58.108Z,2.47
2018-12-21T12:21:01.842Z,2.63
2018-12-21T12:22:06.162Z,3.13
2018-12-21T12:23:09.701Z,2.50
2018-12-21T12:24:13.478Z,2.73
2018-12-21T12:25:17.154Z,2.87
2018-12-21T12:26:20.769Z,3.10
2018-12-21T12:27:24.448Z,3.00
2018-12-21T12:28:27.957Z,2.87
2018-12-21T12:29:32.295Z,2.92
2018-12-21T12:30:36.540Z,2.93
2018-12-21T12:31:40.200Z,3.30
2018-12-21T12:32:44.561Z,2.87
2018-12-21T12:33:48.080Z,2.70
2018-12-21T12:34:52.759Z,3.17
2018-12-21T12:35:56.390Z,2.90
2018-12-21T12:37:00.422Z,3.10
2018-12-21T12:38:04.253Z,3.30
2018-12-21T12:39:07.890Z,3.00
2018-12-21T12:40:11.805Z,2.93
2018-12-21T12:41:15.534Z,3.00
2018-12-21T12:42:20.004Z,3.00
2018-12-21T12:43:23.696Z,3.07
2018-12-21T12:44:27.193Z,3.37
2018-12-21T12:45:31.455Z,3.50
2018-12-21T12:46:35.041Z,3.33
2018-12-21T12:47:38.856Z,3.50
2018-12-21T12:48:43.299Z,3.10
2018-12-21T12:49:46.808Z,3.37
2018-12-21T12:50:50.495Z,3.40
2018-12-21T12:51:54.447Z,3.90
2018-12-21T12:53:00.052Z,2.97
2018-12-21T12:54:04.127Z,3.33
2018-12-21T12:55:08.593Z,3.63
2018-12-21T12:56:12.293Z,3.50
2018-12-21T12:57:16.746Z,3.27
2018-12-21T12:58:21.064Z,2.90
2018-12-21T12:59:24.868Z,3.23
2018-12-21T13:00:29.875Z,3.23
2018-12-21T13:01:34.575Z,3.30
2018-12-21T13:02:38.357Z,3.50
2018-12-21T13:03:41.935Z,3.40
2018-12-21T13:04:45.512Z,2.87
2018-12-21T13:05:49.508Z,2.90
2018-12-21T13:06:53.030Z,2.90
2018-12-21T13:07:56.940Z,2.93
2018-12-21T13:09:00.553Z,2.70
2018-12-21T13:10:04.731Z,2.63
2018-12-21T13:11:09.116Z,2.87
2018-12-21T13:12:13.340Z,2.45
2018-12-21T13:13:16.979Z,2.23
2018-12-21T13:14:20.709Z,2.00
2018-12-21T13:15:24.259Z,2.08
2018-12-21T13:16:27.814Z,2.15
2018-12-21T13:17:31.446Z,2.12
2018-12-21T13:18:35.306Z,1.98
2018-12-21T13:19:38.828Z,2.00
2018-12-21T13:20:42.693Z,1.60
2018-12-21T13:21:46.870Z,1.50
2018-12-21T13:22:51.124Z,1.70
2018-12-21T13:23:54.649Z,1.50
2018-12-21T13:24:58.703Z,1.50
2018-12-21T13:26:02.578Z,1.43
2018-12-21T13:27:06.443Z,1.25
2018-12-21T13:28:10.242Z,1.30
2018-12-21T13:29:13.876Z,1.07
2018-12-21T13:30:17.586Z,1.20
2018-12-21T13:31:21.429Z,1.30
2018-12-21T13:32:25.667Z,1.02
2018-12-21T13:33:29.271Z,1.20
2018-12-21T13:34:33.347Z,1.10
2018-12-21T13:35:37.573Z,1.10
2018-12-21T13:36:42.312Z,1.13
2018-12-21T13:37:45.974Z,1.20
2018-12-21T13:38:49.697Z,1.27
2018-12-21T13:39:53.336Z,1.33
2018-12-21T13:40:56.981Z,1.20
2018-12-21T13:42:00.656Z,1.70
2018-12-21T13:43:05.488Z,1.40
2018-12-21T13:44:10.136Z,1.40
2018-12-21T13:45:13.735Z,1.22
2018-12-21T13:46:17.777Z,1.00
2018-12-21T13:47:21.486Z,1.43
2018-12-21T13:48:25.270Z,1.47
2018-12-21T13:49:28.988Z,1.20
2018-12-21T13:50:32.696Z,1.00
2018-12-21T13:51:36.227Z,1.00
2018-12-21T13:52:39.907Z,1.10
2018-12-21T13:53:43.418Z,0.90
2018-12-21T13:54:47.068Z,1.00
2018-12-21T13:55:51.328Z,0.95
2018-12-21T13:56:55.715Z,0.80
2018-12-21T13:58:00.004Z,1.10
2018-12-21T13:59:04.055Z,1.30
2018-12-21T14:00:09.764Z,1.00
2018-12-21T14:01:13.387Z,1.20
2018-12-21T14:02:17.203Z,1.10
2018-12-21T14:03:20.900Z,1.27
2018-12-21T14:04:24.781Z,1.03
2018-12-21T14:05:28.460Z,0.90
2018-12-21T14:06:33.583Z,1.00
2018-12-21T14:07:37.186Z,1.10
2018-12-21T14:08:41.078Z,1.03
2018-12-21T14:09:44.660Z,1.02
2018-12-21T14:10:48.398Z,1.42
2018-12-21T14:11:51.969Z,2.00
2018-12-21T14:12:56.830Z,1.80